createdAt,value
2017-04-29T01:21:43.438Z,15.04
2017-04-29T01:22:11.553Z,15.05
2017-04-29T01:22:56.192Z,15.02
2017-04-29T01:23:24.219Z,14.99
2017-04-29T01:23:52.235Z,14.97
2017-04-29T01:24:20.333Z,14.96
2017-04-29T01:24:48.440Z,14.94
2017-04-29T01:25:16.535Z,14.99
2017-04-29T01:25:44.653Z,14.97
2017-04-29T01:26:12.654Z,14.96
2017-04-29T01:26:40.640Z,14.99
2017-04-29T01:27:08.738Z,14.99
2017-04-29T01:27:36.757Z,14.94
2017-04-29T01:28:04.871Z,15.02
2017-04-29T01:28:32.873Z,15.02
2017-04-29T01:29:00.994Z,14.97
2017-04-29T01:29:29.029Z,14.96
2017-04-29T01:29:57.132Z,15.05
2017-04-29T01:30:24.950Z,14.97
2017-04-29T01:30:53.057Z,14.99
2017-04-29T01:31:20.883Z,14.93
2017-04-29T01:31:48.965Z,15.02
2017-04-29T01:32:17.068Z,14.97
2017-04-29T01:32:45.084Z,14.97
2017-04-29T01:33:13.182Z,15
2017-04-29T01:33:41.270Z,14.94
2017-04-29T01:34:09.278Z,15.04
2017-04-29T01:34:37.293Z,15.04
2017-04-29T01:35:05.414Z,14.96
2017-04-29T01:35:33.505Z,14.94
2017-04-29T01:36:01.599Z,14.97
2017-04-29T01:36:29.693Z,15.02
2017-04-29T01:36:57.778Z,15
2017-04-29T01:37:25.867Z,14.99
2017-04-29T01:37:53.947Z,14.92
2017-04-29T01:38:21.942Z,14.97
2017-04-29T01:38:50.032Z,14.99
2017-04-29T01:39:18.034Z,15.02
2017-04-29T01:39:46.141Z,15.04
2017-04-29T01:40:14.160Z,14.93
2017-04-29T01:40:42.263Z,15.02
2017-04-29T01:41:10.363Z,15
2017-04-29T01:41:38.471Z,14.96
2017-04-29T01:42:06.580Z,14.93
2017-04-29T01:42:34.674Z,14.97
2017-04-29T01:43:02.773Z,15.05
2017-04-29T01:43:30.884Z,14.99
2017-04-29T01:43:59.008Z,14.97
2017-04-29T01:44:27.103Z,14.93
2017-04-29T01:44:55.204Z,14.9
2017-04-29T01:45:23.304Z,14.97
2017-04-29T01:45:51.395Z,14.93
2017-04-29T01:46:19.323Z,14.96
2017-04-29T01:46:47.412Z,14.93
2017-04-29T01:47:15.557Z,14.87
2017-04-29T01:47:43.677Z,14.92
2017-04-29T01:48:11.759Z,14.89
2017-04-29T01:48:39.765Z,14.87
2017-04-29T01:49:07.850Z,14.87
2017-04-29T01:49:35.983Z,14.89
2017-04-29T01:50:04.061Z,14.89
2017-04-29T01:50:32.180Z,14.89
2017-04-29T01:51:00.262Z,14.89
2017-04-29T01:51:28.196Z,14.86
2017-04-29T01:51:56.291Z,14.9
2017-04-29T01:52:24.408Z,14.93
2017-04-29T01:52:52.462Z,14.86
2017-04-29T01:53:20.552Z,14.86
2017-04-29T01:53:48.585Z,14.87
2017-04-29T01:54:16.683Z,14.89
2017-04-29T01:54:44.796Z,14.86
2017-04-29T01:55:12.905Z,14.87
2017-04-29T01:55:41.004Z,14.87
2017-04-29T01:56:09.098Z,14.87
2017-04-29T01:56:37.191Z,14.71
2017-04-29T01:57:05.296Z,14.87
2017-04-29T01:57:33.226Z,14.9
2017-04-29T01:58:01.309Z,14.89
2017-04-29T01:58:29.329Z,14.93
2017-04-29T01:58:57.432Z,14.93
2017-04-29T01:59:25.516Z,14.89
2017-04-29T01:59:53.624Z,14.89
2017-04-29T02:00:21.734Z,14.89
2017-04-29T02:00:49.800Z,14.89
2017-04-29T02:01:17.797Z,14.89
2017-04-29T02:01:45.810Z,14.89
2017-04-29T02:02:13.910Z,14.93
2017-04-29T02:02:42.003Z,14.93
2017-04-29T02:03:10.098Z,14.89
2017-04-29T02:03:38.204Z,14.93
2017-04-29T02:04:06.283Z,14.93
2017-04-29T02:04:34.378Z,14.93
2017-04-29T02:05:02.476Z,14.94
2017-04-29T02:05:30.464Z,14.99
2017-04-29T02:05:58.542Z,14.9
2017-04-29T02:06:26.639Z,14.96
2017-04-29T02:06:54.627Z,14.87
2017-04-29T02:07:22.623Z,14.92
2017-04-29T02:07:50.702Z,14.92
2017-04-29T02:08:18.718Z,14.93
2017-04-29T02:08:46.706Z,14.96
2017-04-29T02:09:14.809Z,14.92
2017-04-29T02:09:42.911Z,14.93
2017-04-29T02:10:11.016Z,14.89
2017-04-29T02:10:39.125Z,14.96
2017-04-29T02:11:07.225Z,14.92
2017-04-29T02:11:35.222Z,14.97
2017-04-29T02:12:03.213Z,14.97
2017-04-29T02:12:31.024Z,14.93
2017-04-29T02:12:59.127Z,14.99
2017-04-29T02:13:27.136Z,14.96
2017-04-29T02:13:55.231Z,15
2017-04-29T02:14:23.329Z,14.96
2017-04-29T02:14:51.434Z,14.99
2017-04-29T02:15:19.441Z,15.07
2017-04-29T02:15:47.567Z,14.97
2017-04-29T02:16:15.582Z,15.1
2017-04-29T02:16:43.605Z,15.05
2017-04-29T02:17:11.689Z,15.04
2017-04-29T02:17:39.771Z,14.99
2017-04-29T02:18:07.789Z,15.11
2017-04-29T02:18:35.789Z,15.11
2017-04-29T02:19:03.819Z,15.1
2017-04-29T02:19:31.921Z,15.07
2017-04-29T02:20:00.029Z,15.02
2017-04-29T02:20:28.033Z,15.1
2017-04-29T02:20:56.139Z,15.08
2017-04-29T02:21:24.071Z,15.15
2017-04-29T02:21:52.060Z,15.08
2017-04-29T02:22:20.067Z,15.15
2017-04-29T02:22:48.065Z,15.08
2017-04-29T02:23:16.173Z,15
2017-04-29T02:23:44.175Z,14.93
2017-04-29T02:24:12.260Z,14.93
2017-04-29T02:24:40.366Z,14.96
2017-04-29T02:25:08.295Z,14.97
2017-04-29T02:25:36.311Z,14.93
2017-04-29T02:26:04.391Z,14.99
2017-04-29T02:26:32.490Z,14.99
2017-04-29T02:27:00.515Z,15
2017-04-29T02:27:28.515Z,15.02
2017-04-29T02:27:56.515Z,14.96
2017-04-29T02:28:24.414Z,14.92
2017-04-29T02:28:52.504Z,14.94
2017-04-29T02:29:20.612Z,15.02
2017-04-29T02:29:48.712Z,15.02
2017-04-29T02:30:16.706Z,14.99
2017-04-29T02:30:44.796Z,14.93
2017-04-29T02:31:12.884Z,14.99
2017-04-29T02:31:40.993Z,14.94
2017-04-29T02:32:08.997Z,14.99
2017-04-29T02:32:36.982Z,14.94
2017-04-29T02:33:04.899Z,14.97
2017-04-29T02:33:32.997Z,15
2017-04-29T02:34:01.109Z,14.93
2017-04-29T02:34:29.102Z,14.96
2017-04-29T02:34:57.178Z,15
2017-04-29T02:35:25.197Z,15.02
2017-04-29T02:35:53.281Z,14.93
2017-04-29T02:36:21.411Z,14.99
2017-04-29T02:36:49.429Z,15.11
2017-04-29T02:37:17.420Z,15.07
2017-04-29T02:37:45.500Z,15.05
2017-04-29T02:38:13.600Z,15.02
2017-04-29T02:38:41.611Z,15.07
2017-04-29T02:39:09.630Z,15.12
2017-04-29T02:39:37.613Z,15.07
2017-04-29T02:40:05.618Z,15.12
2017-04-29T02:40:33.719Z,15.07
2017-04-29T02:41:01.802Z,15.15
2017-04-29T02:41:29.806Z,15.05
2017-04-29T02:41:57.905Z,15.1
2017-04-29T02:42:25.904Z,15.05
2017-04-29T02:42:53.993Z,15.12
2017-04-29T02:43:22.091Z,15.05
2017-04-29T02:43:50.176Z,15.07
2017-04-29T02:44:18.092Z,15.05
2017-04-29T02:44:46.107Z,15.1
2017-04-29T02:45:14.211Z,15.15
2017-04-29T02:45:42.213Z,15.07
2017-04-29T02:46:10.379Z,15.07
2017-04-29T02:46:38.479Z,15.08
2017-04-29T02:47:06.576Z,15.1
2017-04-29T02:47:34.609Z,15.04
2017-04-29T02:48:02.706Z,15.07
2017-04-29T02:48:30.805Z,15.11
2017-04-29T02:48:58.922Z,15.08
2017-04-29T02:49:27.017Z,15.1
2017-04-29T02:49:55.110Z,15.11
2017-04-29T02:50:23.024Z,15.1
2017-04-29T02:50:51.024Z,15.11
2017-04-29T02:51:19.097Z,15.05
2017-04-29T02:51:47.214Z,15.1
2017-04-29T02:52:15.287Z,15.1
2017-04-29T02:52:43.383Z,15.07
2017-04-29T02:53:11.389Z,15.05
2017-04-29T02:53:39.477Z,15.07
2017-04-29T02:54:07.572Z,15.05
2017-04-29T02:54:35.570Z,15.08
2017-04-29T02:55:03.668Z,14.99
2017-04-29T02:55:31.753Z,14.94
2017-04-29T02:55:59.840Z,15
2017-04-29T02:56:27.822Z,15
2017-04-29T02:56:55.911Z,15
2017-04-29T02:57:23.902Z,14.94
2017-04-29T02:57:52.012Z,14.97
2017-04-29T02:58:20.197Z,14.99
2017-04-29T02:58:48.200Z,14.97
2017-04-29T02:59:16.299Z,14.99
2017-04-29T02:59:44.323Z,14.97
2017-04-29T03:00:12.423Z,14.97
2017-04-29T03:00:40.424Z,14.96
2017-04-29T03:01:08.518Z,14.97
2017-04-29T03:01:36.532Z,15.05
2017-04-29T03:02:04.550Z,15.05
2017-04-29T03:02:32.547Z,14.96
2017-04-29T03:03:00.670Z,14.93
2017-04-29T03:03:28.772Z,14.96
2017-04-29T03:03:56.886Z,14.93
2017-04-29T03:04:24.894Z,14.99
2017-04-29T03:04:53.000Z,15.04
2017-04-29T03:05:21.011Z,15.14
2017-04-29T03:05:49.012Z,15.08
2017-04-29T03:06:17.102Z,15.11
2017-04-29T03:06:45.194Z,15.12
2017-04-29T03:07:13.274Z,15.07
2017-04-29T03:07:41.355Z,15.11
2017-04-29T03:08:09.449Z,15.1
2017-04-29T03:08:37.575Z,15.1
2017-04-29T03:09:05.682Z,15.02
2017-04-29T03:09:33.789Z,15.02
2017-04-29T03:10:01.890Z,15.1
2017-04-29T03:10:30.002Z,15.05
2017-04-29T03:10:58.094Z,15.04
2017-04-29T03:11:26.186Z,15
2017-04-29T03:11:54.281Z,14.99
2017-04-29T03:12:22.378Z,15
2017-04-29T03:12:50.286Z,14.96
2017-04-29T03:13:18.384Z,15.05
2017-04-29T03:13:46.490Z,15
2017-04-29T03:14:14.587Z,14.96
2017-04-29T03:14:42.502Z,14.97
2017-04-29T03:15:10.597Z,15
2017-04-29T03:15:38.594Z,14.97
2017-04-29T03:16:06.685Z,15.02
2017-04-29T03:16:34.603Z,15.07
2017-04-29T03:17:02.702Z,15.05
2017-04-29T03:17:30.812Z,15.02
2017-04-29T03:17:58.830Z,15.05
2017-04-29T03:18:26.830Z,14.97
2017-04-29T03:18:54.911Z,15.02
2017-04-29T03:19:23.030Z,15.12
2017-04-29T03:19:51.127Z,15.07
2017-04-29T03:20:19.234Z,15.08
2017-04-29T03:20:47.235Z,15.05
2017-04-29T03:21:15.331Z,15.07
2017-04-29T03:21:43.435Z,15.08
2017-04-29T03:22:11.524Z,15.11
2017-04-29T03:22:39.637Z,15
2017-04-29T03:23:07.728Z,15.08
2017-04-29T03:23:35.822Z,15.12
2017-04-29T03:24:03.915Z,15.1
2017-04-29T03:24:31.918Z,15.05
2017-04-29T03:24:59.996Z,15.14
2017-04-29T03:25:28.094Z,15.11
2017-04-29T03:25:56.110Z,15.07
2017-04-29T03:26:24.211Z,15.15
2017-04-29T03:26:52.304Z,15.1
2017-04-29T03:27:20.309Z,15.11
2017-04-29T03:27:48.392Z,15.05
2017-04-29T03:28:16.474Z,14.97
2017-04-29T03:28:44.465Z,15.05
2017-04-29T03:29:12.539Z,15.05
2017-04-29T03:29:40.740Z,14.97
2017-04-29T03:30:08.749Z,15.12
2017-04-29T03:30:36.854Z,15.15
2017-04-29T03:31:04.852Z,15.1
2017-04-29T03:31:32.858Z,15.1
2017-04-29T03:32:00.975Z,15.1
2017-04-29T03:32:29.081Z,15.07
2017-04-29T03:32:57.177Z,15.08
2017-04-29T03:33:25.170Z,15.05
2017-04-29T03:33:53.099Z,15.07
2017-04-29T03:34:21.180Z,15.1
2017-04-29T03:34:49.259Z,15.14
2017-04-29T03:35:17.259Z,15.12
2017-04-29T03:35:45.263Z,15.11
2017-04-29T03:36:13.345Z,15.15
2017-04-29T03:36:41.345Z,15.17
2017-04-29T03:37:09.443Z,15.22
2017-04-29T03:37:37.479Z,15.12
2017-04-29T03:38:05.592Z,15.23
2017-04-29T03:38:33.685Z,15.27
2017-04-29T03:39:01.678Z,15.18
2017-04-29T03:39:29.778Z,15.22
2017-04-29T03:39:57.778Z,15.23
2017-04-29T03:40:25.888Z,15.19
2017-04-29T03:40:53.984Z,15.25
2017-04-29T03:41:22.093Z,15.23
2017-04-29T03:41:50.010Z,15.19
2017-04-29T03:42:17.934Z,15.22
2017-04-29T03:42:45.929Z,15.19
2017-04-29T03:43:13.927Z,15.18
2017-04-29T03:43:42.037Z,15.15
2017-04-29T03:44:10.123Z,15.23
2017-04-29T03:44:38.276Z,15.18
2017-04-29T03:45:06.370Z,15.22
2017-04-29T03:45:34.456Z,15.15
2017-04-29T03:46:02.547Z,15.15
2017-04-29T03:46:30.537Z,15.18
2017-04-29T03:46:58.625Z,15.12
2017-04-29T03:47:26.713Z,15.19
2017-04-29T03:47:54.835Z,15.17
2017-04-29T03:48:22.854Z,15.19
2017-04-29T03:48:50.879Z,15.17
2017-04-29T03:49:18.901Z,15.19
2017-04-29T03:49:46.958Z,15.23
2017-04-29T03:50:14.876Z,15.19
2017-04-29T03:50:42.808Z,15.18
2017-04-29T03:51:10.905Z,15.23
2017-04-29T03:51:38.993Z,15.22
2017-04-29T03:52:07.099Z,15.14
2017-04-29T03:52:35.195Z,15.23
2017-04-29T03:53:03.480Z,15.25
2017-04-29T03:53:31.570Z,15.22
2017-04-29T03:53:59.578Z,15.26
2017-04-29T03:54:27.576Z,15.19
2017-04-29T03:54:55.691Z,15.19
2017-04-29T03:55:23.687Z,15.19
2017-04-29T03:55:51.782Z,15.17
2017-04-29T03:56:19.790Z,15.23
2017-04-29T03:56:47.912Z,15.19
2017-04-29T03:57:16.028Z,15.19
2017-04-29T03:57:44.133Z,15.23
2017-04-29T03:58:12.462Z,15.15
2017-04-29T03:58:40.377Z,15.15
2017-04-29T03:59:08.369Z,15.19
2017-04-29T03:59:36.474Z,15.22
2017-04-29T04:00:04.573Z,15.22
2017-04-29T04:00:32.673Z,15.27
2017-04-29T04:01:00.782Z,15.29
2017-04-29T04:01:28.895Z,15.29
2017-04-29T04:01:56.990Z,15.3
2017-04-29T04:02:25.095Z,15.32
2017-04-29T04:02:53.186Z,15.33
2017-04-29T04:03:21.288Z,15.3
2017-04-29T04:03:49.381Z,15.3
2017-04-29T04:04:17.397Z,15.35
2017-04-29T04:04:45.495Z,15.35
2017-04-29T04:05:13.599Z,15.33
2017-04-29T04:05:41.695Z,15.27
2017-04-29T04:06:10.146Z,15.36
2017-04-29T04:06:38.149Z,15.32
2017-04-29T04:07:06.143Z,15.32
2017-04-29T04:07:34.140Z,15.41
2017-04-29T04:08:02.240Z,15.44
2017-04-29T04:08:30.321Z,15.39
2017-04-29T04:08:58.423Z,15.35
2017-04-29T04:09:26.440Z,15.39
2017-04-29T04:09:54.544Z,15.41
2017-04-29T04:10:22.666Z,15.41
2017-04-29T04:10:50.766Z,15.37
2017-04-29T04:11:18.855Z,15.39
2017-04-29T04:11:46.956Z,15.41
2017-04-29T04:12:15.049Z,15.47
2017-04-29T04:12:43.137Z,15.45
2017-04-29T04:13:11.252Z,15.39
2017-04-29T04:13:39.361Z,15.41
2017-04-29T04:14:07.477Z,15.36
2017-04-29T04:14:35.379Z,15.36
2017-04-29T04:15:03.483Z,15.41
2017-04-29T04:15:31.594Z,15.41
2017-04-29T04:15:59.592Z,15.36
2017-04-29T04:16:27.688Z,15.35
2017-04-29T04:16:55.797Z,15.45
2017-04-29T04:17:23.813Z,15.36
2017-04-29T04:17:51.912Z,15.5
2017-04-29T04:18:20.010Z,15.44
2017-04-29T04:18:48.101Z,15.44
2017-04-29T04:19:16.197Z,15.45
2017-04-29T04:19:44.288Z,15.41
2017-04-29T04:20:12.904Z,15.43
2017-04-29T04:20:40.818Z,15.44
2017-04-29T04:21:08.817Z,15.44
2017-04-29T04:21:36.915Z,15.48
2017-04-29T04:22:05.046Z,15.44
2017-04-29T04:22:33.150Z,15.47
2017-04-29T04:23:01.237Z,15.43
2017-04-29T04:23:29.255Z,15.45
2017-04-29T04:23:57.337Z,15.48
2017-04-29T04:24:25.419Z,15.45
2017-04-29T04:24:53.510Z,15.51
2017-04-29T04:25:21.517Z,15.48
2017-04-29T04:25:49.510Z,15.44
2017-04-29T04:26:17.528Z,15.48
2017-04-29T04:26:45.616Z,15.5
2017-04-29T04:27:13.621Z,15.54
2017-04-29T04:27:41.713Z,15.45
2017-04-29T04:28:09.815Z,15.44
2017-04-29T04:28:37.820Z,15.37
2017-04-29T04:29:05.916Z,15.44
2017-04-29T04:29:34.008Z,15.48
2017-04-29T04:30:02.132Z,15.41
2017-04-29T04:30:30.256Z,15.43
2017-04-29T04:30:58.350Z,15.43
2017-04-29T04:31:26.378Z,15.44
2017-04-29T04:31:54.472Z,15.45
2017-04-29T04:32:22.477Z,15.36
2017-04-29T04:32:50.579Z,15.41
2017-04-29T04:33:18.684Z,15.44
2017-04-29T04:33:46.780Z,15.41
2017-04-29T04:34:14.859Z,15.35
2017-04-29T04:34:42.961Z,15.44
2017-04-29T04:35:11.071Z,15.45
2017-04-29T04:35:39.078Z,15.48
2017-04-29T04:36:07.176Z,15.41
2017-04-29T04:36:35.248Z,15.37
2017-04-29T04:37:03.320Z,15.44
2017-04-29T04:37:31.432Z,15.48
2017-04-29T04:37:59.527Z,15.44
2017-04-29T04:38:27.638Z,15.43
2017-04-29T04:38:55.725Z,15.48
2017-04-29T04:39:23.623Z,15.48
2017-04-29T04:39:51.628Z,15.5
2017-04-29T04:40:19.705Z,15.43
2017-04-29T04:40:47.800Z,15.51
2017-04-29T04:41:15.890Z,15.47
2017-04-29T04:41:43.998Z,15.48
2017-04-29T04:42:12.082Z,15.45
2017-04-29T04:42:40.184Z,15.51
2017-04-29T04:43:08.203Z,15.45
2017-04-29T04:43:36.205Z,15.44
2017-04-29T04:44:04.316Z,15.47
2017-04-29T04:44:32.403Z,15.48
2017-04-29T04:45:00.493Z,15.51
2017-04-29T04:45:28.471Z,15.52
2017-04-29T04:45:56.563Z,15.5
2017-04-29T04:46:24.650Z,15.48
2017-04-29T04:46:52.758Z,15.54
2017-04-29T04:47:20.863Z,15.55
2017-04-29T04:47:48.975Z,15.51
2017-04-29T04:48:16.880Z,15.48
2017-04-29T04:48:44.986Z,15.52
2017-04-29T04:49:13.065Z,15.47
2017-04-29T04:49:41.089Z,15.47
2017-04-29T04:50:09.183Z,15.52
2017-04-29T04:50:37.191Z,15.45
2017-04-29T04:51:05.277Z,15.5
2017-04-29T04:51:33.371Z,15.47
2017-04-29T04:52:01.471Z,15.45
2017-04-29T04:52:29.555Z,15.5
2017-04-29T04:52:57.664Z,15.51
2017-04-29T04:53:25.771Z,15.57
2017-04-29T04:53:53.860Z,15.57
2017-04-29T04:54:21.958Z,15.54
2017-04-29T04:54:50.055Z,15.5
2017-04-29T04:55:18.130Z,15.57
2017-04-29T04:55:46.206Z,15.55
2017-04-29T04:56:14.313Z,15.57
2017-04-29T04:56:42.399Z,15.52
2017-04-29T04:57:10.491Z,15.51
2017-04-29T04:57:38.575Z,15.55
2017-04-29T04:58:06.674Z,15.65
2017-04-29T04:58:34.673Z,15.51
2017-04-29T04:59:02.753Z,15.59
2017-04-29T04:59:30.883Z,15.62
2017-04-29T04:59:58.969Z,15.62
2017-04-29T05:00:27.065Z,15.63
2017-04-29T05:00:55.145Z,15.69
2017-04-29T05:01:23.160Z,15.65
2017-04-29T05:01:51.164Z,15.62
2017-04-29T05:02:19.261Z,15.6
2017-04-29T05:02:47.350Z,15.63
2017-04-29T05:03:15.441Z,15.67
2017-04-29T05:03:43.522Z,15.67
2017-04-29T05:04:11.620Z,15.63
2017-04-29T05:04:39.733Z,15.65
2017-04-29T05:05:07.732Z,15.69
2017-04-29T05:05:35.645Z,15.72
2017-04-29T05:06:03.753Z,15.59
2017-04-29T05:06:31.865Z,15.62
2017-04-29T05:06:59.861Z,15.63
2017-04-29T05:07:27.943Z,15.69
2017-04-29T05:07:56.025Z,15.62
2017-04-29T05:08:24.116Z,15.65
2017-04-29T05:08:52.214Z,15.7
2017-04-29T05:09:20.340Z,15.52
2017-04-29T05:09:48.453Z,15.54
2017-04-29T05:10:16.553Z,15.52
2017-04-29T05:10:44.646Z,15.63
2017-04-29T05:11:12.744Z,15.6
2017-04-29T05:11:40.648Z,15.6
2017-04-29T05:12:08.727Z,15.57
2017-04-29T05:12:36.821Z,15.54
2017-04-29T05:13:04.921Z,15.57
2017-04-29T05:13:33.013Z,15.57
2017-04-29T05:14:01.104Z,15.51
2017-04-29T05:14:29.186Z,15.59
2017-04-29T05:14:57.188Z,15.63
2017-04-29T05:15:25.279Z,15.55
2017-04-29T05:15:53.370Z,15.62
2017-04-29T05:16:21.459Z,15.66
2017-04-29T05:16:49.568Z,15.66
2017-04-29T05:17:17.669Z,15.59
2017-04-29T05:17:45.766Z,15.69
2017-04-29T05:18:13.884Z,15.6
2017-04-29T05:18:41.898Z,15.62
2017-04-29T05:19:09.922Z,15.69
2017-04-29T05:19:37.997Z,15.62
2017-04-29T05:20:06.101Z,15.54
2017-04-29T05:20:34.072Z,15.67
2017-04-29T05:21:02.153Z,15.69
2017-04-29T05:21:29.976Z,15.69
2017-04-29T05:21:57.990Z,15.66
2017-04-29T05:22:26.075Z,15.57
2017-04-29T05:22:54.167Z,15.59
2017-04-29T05:23:22.078Z,15.59
2017-04-29T05:23:50.167Z,15.65
2017-04-29T05:24:18.170Z,15.65
2017-04-29T05:24:46.282Z,15.62
2017-04-29T05:25:14.283Z,15.63
2017-04-29T05:25:42.384Z,15.69
2017-04-29T05:26:10.387Z,15.62
2017-04-29T05:26:38.482Z,15.67
2017-04-29T05:27:06.584Z,15.6
2017-04-29T05:27:34.686Z,15.55
2017-04-29T05:28:02.775Z,15.65
2017-04-29T05:28:30.867Z,15.57
2017-04-29T05:28:59.013Z,15.62
2017-04-29T05:29:27.250Z,15.63
2017-04-29T05:29:55.354Z,15.65
2017-04-29T05:30:23.363Z,15.6
2017-04-29T05:30:51.376Z,15.62
2017-04-29T05:31:19.389Z,15.62
2017-04-29T05:31:47.492Z,15.67
2017-04-29T05:32:15.565Z,15.65
2017-04-29T05:32:43.665Z,15.69
2017-04-29T05:33:11.760Z,15.62
2017-04-29T05:33:39.848Z,15.65
2017-04-29T05:34:07.951Z,15.67
2017-04-29T05:34:36.037Z,15.69
2017-04-29T05:35:04.150Z,15.7
2017-04-29T05:35:32.158Z,15.7
2017-04-29T05:36:00.252Z,15.7
2017-04-29T05:36:28.255Z,15.63
2017-04-29T05:36:56.342Z,15.65
2017-04-29T05:37:24.470Z,15.65
2017-04-29T05:37:52.393Z,15.59
2017-04-29T05:38:20.506Z,15.6
2017-04-29T05:38:48.594Z,15.67
2017-04-29T05:39:16.672Z,15.6
2017-04-29T05:39:44.769Z,15.62
2017-04-29T05:40:12.863Z,15.66
2017-04-29T05:40:40.965Z,15.6
2017-04-29T05:41:09.064Z,15.66
2017-04-29T05:41:37.161Z,15.67
2017-04-29T05:42:05.247Z,15.65
2017-04-29T05:42:33.346Z,15.7
2017-04-29T05:43:01.449Z,15.72
2017-04-29T05:43:29.438Z,15.72
2017-04-29T05:43:57.441Z,15.7
2017-04-29T05:44:25.537Z,15.75
2017-04-29T05:44:53.538Z,15.7
2017-04-29T05:45:21.633Z,15.65
2017-04-29T05:45:49.640Z,15.75
2017-04-29T05:46:17.761Z,15.73
2017-04-29T05:46:45.856Z,15.75
2017-04-29T05:47:13.960Z,15.78
2017-04-29T05:47:42.072Z,15.8
2017-04-29T05:48:10.076Z,15.75
2017-04-29T05:48:38.183Z,15.65
2017-04-29T05:49:06.318Z,15.72
2017-04-29T05:49:34.408Z,15.72
2017-04-29T05:50:02.527Z,15.69
2017-04-29T05:50:30.521Z,15.65
2017-04-29T05:50:58.626Z,15.72
2017-04-29T05:51:26.616Z,15.63
2017-04-29T05:51:54.708Z,15.72
2017-04-29T05:52:22.828Z,15.69
2017-04-29T05:52:50.941Z,15.73
2017-04-29T05:53:19.039Z,15.73
2017-04-29T05:53:47.131Z,15.73
2017-04-29T05:54:15.220Z,15.7
2017-04-29T05:54:43.203Z,15.73
2017-04-29T05:55:11.302Z,15.72
2017-04-29T05:55:39.373Z,15.66
2017-04-29T05:56:07.455Z,15.7
2017-04-29T05:56:35.461Z,15.75
2017-04-29T05:57:03.460Z,15.7
2017-04-29T05:57:31.548Z,15.67
2017-04-29T05:57:59.548Z,15.66
2017-04-29T05:58:27.674Z,15.7
2017-04-29T05:58:55.778Z,15.72
2017-04-29T05:59:23.779Z,15.7
2017-04-29T05:59:51.773Z,15.6
2017-04-29T06:00:19.880Z,15.66
2017-04-29T06:00:48.019Z,15.62
2017-04-29T06:01:16.383Z,15.72
2017-04-29T06:01:44.479Z,15.7
2017-04-29T06:02:12.560Z,15.72
2017-04-29T06:02:40.597Z,15.7
2017-04-29T06:03:08.703Z,15.63
2017-04-29T06:03:36.840Z,15.69
2017-04-29T06:04:04.835Z,15.72
2017-04-29T06:04:32.947Z,15.67
2017-04-29T06:05:01.047Z,15.7
2017-04-29T06:05:29.143Z,15.66
2017-04-29T06:05:57.231Z,15.72
2017-04-29T06:06:25.337Z,15.73
2017-04-29T06:06:53.324Z,15.7
2017-04-29T06:07:21.428Z,15.69
2017-04-29T06:07:49.538Z,15.73
2017-04-29T06:08:17.635Z,15.72
2017-04-29T06:08:45.719Z,15.76
2017-04-29T06:09:13.730Z,15.73
2017-04-29T06:09:41.810Z,15.65
2017-04-29T06:10:09.899Z,15.72
2017-04-29T06:10:37.898Z,15.76
2017-04-29T06:11:05.910Z,15.69
2017-04-29T06:11:34.024Z,15.72
2017-04-29T06:12:02.046Z,15.73
2017-04-29T06:12:30.038Z,15.7
2017-04-29T06:12:58.036Z,15.7
2017-04-29T06:13:26.062Z,15.69
2017-04-29T06:13:54.070Z,15.73
2017-04-29T06:14:22.150Z,15.67
2017-04-29T06:14:50.197Z,15.69
2017-04-29T06:15:18.103Z,15.67
2017-04-29T06:15:46.017Z,15.7
2017-04-29T06:16:14.121Z,15.76
2017-04-29T06:16:42.147Z,15.67
2017-04-29T06:17:10.287Z,15.72
2017-04-29T06:17:38.368Z,15.73
2017-04-29T06:18:06.452Z,15.76
2017-04-29T06:18:34.545Z,15.81
2017-04-29T06:19:02.645Z,15.76
2017-04-29T06:19:30.665Z,15.72
2017-04-29T06:19:58.759Z,15.76
2017-04-29T06:20:26.852Z,15.78
2017-04-29T06:20:54.936Z,15.7
2017-04-29T06:21:23.029Z,15.84
2017-04-29T06:21:51.131Z,15.69
2017-04-29T06:22:19.224Z,15.73
2017-04-29T06:22:47.243Z,15.73
2017-04-29T06:23:15.348Z,15.76
2017-04-29T06:23:43.454Z,15.78
2017-04-29T06:24:11.548Z,15.72
2017-04-29T06:24:39.560Z,15.76
2017-04-29T06:25:07.648Z,15.75
2017-04-29T06:25:35.561Z,15.73
2017-04-29T06:26:03.675Z,15.8
2017-04-29T06:26:31.757Z,15.73
2017-04-29T06:26:59.875Z,15.72
2017-04-29T06:27:27.961Z,15.67
2017-04-29T06:27:56.065Z,15.7
2017-04-29T06:28:24.093Z,15.72
2017-04-29T06:28:52.193Z,15.67
2017-04-29T06:29:20.289Z,15.7
2017-04-29T06:29:48.382Z,15.69
2017-04-29T06:30:16.473Z,15.73
2017-04-29T06:30:44.556Z,15.75
2017-04-29T06:31:12.565Z,15.67
2017-04-29T06:31:40.647Z,15.76
2017-04-29T06:32:08.755Z,15.7
2017-04-29T06:32:36.752Z,15.69
2017-04-29T06:33:04.859Z,15.73
2017-04-29T06:33:32.958Z,15.73
2017-04-29T06:34:00.967Z,15.7
2017-04-29T06:34:29.050Z,15.72
2017-04-29T06:34:57.133Z,15.7
2017-04-29T06:35:25.236Z,15.73
2017-04-29T06:35:53.233Z,15.73
2017-04-29T06:36:21.539Z,15.72
2017-04-29T06:36:49.626Z,15.75
2017-04-29T06:37:17.649Z,15.78
2017-04-29T06:37:45.744Z,15.8
2017-04-29T06:38:13.745Z,15.8
2017-04-29T06:38:41.639Z,15.81
2017-04-29T06:39:09.735Z,15.81
2017-04-29T06:39:37.734Z,15.84
2017-04-29T06:40:05.833Z,15.81
2017-04-29T06:40:33.943Z,15.85
2017-04-29T06:41:02.051Z,15.88
2017-04-29T06:41:30.148Z,15.85
2017-04-29T06:41:58.157Z,15.94
2017-04-29T06:42:26.255Z,15.9
2017-04-29T06:42:54.338Z,15.92
2017-04-29T06:43:22.432Z,15.96
2017-04-29T06:43:50.438Z,16.02
2017-04-29T06:44:18.361Z,15.98
2017-04-29T06:44:46.373Z,16
2017-04-29T06:45:14.410Z,16.02
2017-04-29T06:45:42.404Z,15.98
2017-04-29T06:46:10.504Z,16.06
2017-04-29T06:46:38.592Z,16
2017-04-29T06:47:06.705Z,16.02
2017-04-29T06:47:34.697Z,15.98
2017-04-29T06:48:02.789Z,16.03
2017-04-29T06:48:30.890Z,16
2017-04-29T06:48:58.986Z,16.02
2017-04-29T06:49:27.077Z,16.02
2017-04-29T06:49:55.189Z,16.02
2017-04-29T06:50:23.188Z,15.99
2017-04-29T06:50:51.274Z,16.08
2017-04-29T06:51:19.195Z,16.09
2017-04-29T06:51:47.295Z,16.06
2017-04-29T06:52:15.404Z,16.09
2017-04-29T06:52:43.498Z,16.08
2017-04-29T06:53:11.592Z,16.08
2017-04-29T06:53:39.590Z,16.06
2017-04-29T06:54:07.671Z,16.02
2017-04-29T06:54:35.670Z,16.08
2017-04-29T06:55:03.759Z,16
2017-04-29T06:55:31.749Z,16.02
2017-04-29T06:55:59.839Z,16.05
2017-04-29T06:56:27.929Z,16
2017-04-29T06:56:55.838Z,15.96
2017-04-29T06:57:23.842Z,15.91
2017-04-29T06:57:51.944Z,15.96
2017-04-29T06:58:20.093Z,15.96
2017-04-29T06:58:48.190Z,15.94
2017-04-29T06:59:16.296Z,15.92
2017-04-29T06:59:44.381Z,15.99
2017-04-29T07:00:12.507Z,15.92
2017-04-29T07:00:40.506Z,15.92
2017-04-29T07:01:08.611Z,15.92
2017-04-29T07:01:36.697Z,15.91
2017-04-29T07:02:04.824Z,15.91
2017-04-29T07:02:32.936Z,15.9
2017-04-29T07:03:01.040Z,15.92
2017-04-29T07:03:29.149Z,15.9
2017-04-29T07:03:57.173Z,15.81
2017-04-29T07:04:25.277Z,15.92
2017-04-29T07:04:53.378Z,15.92
2017-04-29T07:05:21.470Z,15.81
2017-04-29T07:05:49.475Z,15.94
2017-04-29T07:06:17.573Z,15.98
2017-04-29T07:06:45.657Z,15.92
2017-04-29T07:07:13.750Z,15.91
2017-04-29T07:07:41.688Z,15.99
2017-04-29T07:08:09.730Z,15.88
2017-04-29T07:08:37.850Z,15.9
2017-04-29T07:09:05.863Z,15.88
2017-04-29T07:09:33.959Z,15.9
2017-04-29T07:10:02.060Z,15.84
2017-04-29T07:10:30.075Z,15.94
2017-04-29T07:10:58.189Z,15.94
2017-04-29T07:11:26.296Z,15.9
2017-04-29T07:11:54.416Z,15.9
2017-04-29T07:12:22.519Z,15.92
2017-04-29T07:12:50.619Z,15.91
2017-04-29T07:13:18.714Z,15.96
2017-04-29T07:13:46.716Z,15.94
2017-04-29T07:14:14.811Z,15.99
2017-04-29T07:14:42.916Z,15.98
2017-04-29T07:15:10.915Z,15.94
2017-04-29T07:15:38.952Z,15.88
2017-04-29T07:16:06.956Z,15.98
2017-04-29T07:16:34.948Z,15.96
2017-04-29T07:17:03.045Z,15.96
2017-04-29T07:17:31.162Z,15.92
2017-04-29T07:17:59.153Z,15.94
2017-04-29T07:18:27.235Z,15.94
2017-04-29T07:18:55.318Z,15.96
2017-04-29T07:19:23.421Z,15.99
2017-04-29T07:19:51.434Z,15.9
2017-04-29T07:20:19.360Z,15.96
2017-04-29T07:20:47.436Z,15.96
2017-04-29T07:21:15.532Z,15.99
2017-04-29T07:21:43.544Z,16.02
2017-04-29T07:22:11.661Z,16
2017-04-29T07:22:39.725Z,15.98
2017-04-29T07:23:07.828Z,16.06
2017-04-29T07:23:35.826Z,15.91
2017-04-29T07:24:03.929Z,15.99
2017-04-29T07:24:31.937Z,16.02
2017-04-29T07:25:00.032Z,16
2017-04-29T07:25:28.130Z,15.92